sensor_id;sensor_type;location;lat;lon;timestamp;temperature;humidity
20568;DHT22;10442;49.932;11.592;2022-08-19T00:01:57;23.10;75.20
20568;DHT22;10442;49.932;11.592;2022-08-19T00:04:28;23.20;75.50
20568;DHT22;10442;49.932;11.592;2022-08-19T00:06:57;23.10;75.70
20568;DHT22;10442;49.932;11.592;2022-08-19T00:09:26;23.10;76.20
20568;DHT22;10442;49.932;11.592;2022-08-19T00:11:55;23.20;75.80
20568;DHT22;10442;49.932;11.592;2022-08-19T00:14:25;23.20;75.50
20568;DHT22;10442;49.932;11.592;2022-08-19T00:16:53;23.20;75.30
20568;DHT22;10442;49.932;11.592;2022-08-19T00:19:22;23.20;75.60
20568;DHT22;10442;49.932;11.592;2022-08-19T00:21:51;23.20;75.80
20568;DHT22;10442;49.932;11.592;2022-08-19T00:24:18;23.20;75.60
20568;DHT22;10442;49.932;11.592;2022-08-19T00:26:47;23.10;75.50
20568;DHT22;10442;49.932;11.592;2022-08-19T00:29:16;23.10;75.10
20568;DHT22;10442;49.932;11.592;2022-08-19T00:31:45;23.10;75.00
20568;DHT22;10442;49.932;11.592;2022-08-19T00:34:14;23.10;74.80
20568;DHT22;10442;49.932;11.592;2022-08-19T00:36:42;23.10;74.60
20568;DHT22;10442;49.932;11.592;2022-08-19T00:39:11;23.00;75.20
20568;DHT22;10442;49.932;11.592;2022-08-19T00:41:40;23.00;74.80
20568;DHT22;10442;49.932;11.592;2022-08-19T00:44:15;23.00;75.00
20568;DHT22;10442;49.932;11.592;2022-08-19T00:46:45;22.90;75.40
20568;DHT22;10442;49.932;11.592;2022-08-19T00:49:47;22.90;75.20
20568;DHT22;10442;49.932;11.592;2022-08-19T00:52:33;22.80;75.90
20568;DHT22;10442;49.932;11.592;2022-08-19T00:55:02;22.80;75.30
20568;DHT22;10442;49.932;11.592;2022-08-19T00:57:34;22.70;75.10
20568;DHT22;10442;49.932;11.592;2022-08-19T01:00:08;22.70;75.10
20568;DHT22;10442;49.932;11.592;2022-08-19T01:02:39;22.60;75.20
20568;DHT22;10442;49.932;11.592;2022-08-19T01:05:10;22.60;75.00
20568;DHT22;10442;49.932;11.592;2022-08-19T01:07:40;22.50;75.20
20568;DHT22;10442;49.932;11.592;2022-08-19T01:10:12;22.50;75.50
20568;DHT22;10442;49.932;11.592;2022-08-19T01:12:40;22.50;75.70
20568;DHT22;10442;49.932;11.592;2022-08-19T01:15:10;22.40;75.70
20568;DHT22;10442;49.932;11.592;2022-08-19T01:17:39;22.40;75.50
20568;DHT22;10442;49.932;11.592;2022-08-19T01:20:16;22.30;75.50
20568;DHT22;10442;49.932;11.592;2022-08-19T01:22:53;22.30;75.60
20568;DHT22;10442;49.932;11.592;2022-08-19T01:25:24;22.30;76.10
20568;DHT22;10442;49.932;11.592;2022-08-19T01:27:55;22.30;76.10
20568;DHT22;10442;49.932;11.592;2022-08-19T01:30:34;22.20;76.30
20568;DHT22;10442;49.932;11.592;2022-08-19T01:33:02;22.20;76.80
20568;DHT22;10442;49.932;11.592;2022-08-19T01:35:32;22.20;76.60
20568;DHT22;10442;49.932;11.592;2022-08-19T01:38:02;22.10;76.50
20568;DHT22;10442;49.932;11.592;2022-08-19T01:40:31;22.20;76.60
20568;DHT22;10442;49.932;11.592;2022-08-19T01:43:00;22.10;76.60
20568;DHT22;10442;49.932;11.592;2022-08-19T01:45:30;22.20;77.10
20568;DHT22;10442;49.932;11.592;2022-08-19T01:47:59;22.10;77.50
20568;DHT22;10442;49.932;11.592;2022-08-19T01:50:30;22.10;77.60
20568;DHT22;10442;49.932;11.592;2022-08-19T01:52:59;22.10;77.50
20568;DHT22;10442;49.932;11.592;2022-08-19T01:55:34;22.20;77.90
20568;DHT22;10442;49.932;11.592;2022-08-19T01:58:21;22.20;78.00
20568;DHT22;10442;49.932;11.592;2022-08-19T02:00:50;22.20;78.60
20568;DHT22;10442;49.932;11.592;2022-08-19T02:03:17;22.30;78.40
20568;DHT22;10442;49.932;11.592;2022-08-19T02:05:45;22.30;78.30
20568;DHT22;10442;49.932;11.592;2022-08-19T02:08:12;22.30;78.10
20568;DHT22;10442;49.932;11.592;2022-08-19T02:10:42;22.40;78.20
20568;DHT22;10442;49.932;11.592;2022-08-19T02:13:11;22.40;78.10
20568;DHT22;10442;49.932;11.592;2022-08-19T02:15:39;22.40;78.10
20568;DHT22;10442;49.932;11.592;2022-08-19T02:18:07;22.40;77.80
20568;DHT22;10442;49.932;11.592;2022-08-19T02:20:37;22.50;77.80
20568;DHT22;10442;49.932;11.592;2022-08-19T02:23:06;22.50;77.80
20568;DHT22;10442;49.932;11.592;2022-08-19T02:25:46;22.50;77.90
20568;DHT22;10442;49.932;11.592;2022-08-19T02:28:15;22.50;78.20
20568;DHT22;10442;49.932;11.592;2022-08-19T02:30:47;22.60;78.20
20568;DHT22;10442;49.932;11.592;2022-08-19T02:33:15;22.60;78.30
20568;DHT22;10442;49.932;11.592;2022-08-19T02:35:45;22.60;78.30
20568;DHT22;10442;49.932;11.592;2022-08-19T02:38:14;22.60;78.40
20568;DHT22;10442;49.932;11.592;2022-08-19T02:41:01;22.60;78.40
20568;DHT22;10442;49.932;11.592;2022-08-19T02:43:31;22.60;78.60
20568;DHT22;10442;49.932;11.592;2022-08-19T02:46:01;22.70;78.60
20568;DHT22;10442;49.932;11.592;2022-08-19T02:48:29;22.70;78.70
20568;DHT22;10442;49.932;11.592;2022-08-19T02:51:00;22.70;78.80
20568;DHT22;10442;49.932;11.592;2022-08-19T02:53:28;22.70;78.80
20568;DHT22;10442;49.932;11.592;2022-08-19T02:55:56;22.70;78.60
20568;DHT22;10442;49.932;11.592;2022-08-19T02:58:23;22.70;78.50
20568;DHT22;10442;49.932;11.592;2022-08-19T03:00:53;22.80;78.60
20568;DHT22;10442;49.932;11.592;2022-08-19T03:03:22;22.70;78.60
20568;DHT22;10442;49.932;11.592;2022-08-19T03:05:50;22.70;78.40
20568;DHT22;10442;49.932;11.592;2022-08-19T03:08:23;22.80;78.40
20568;DHT22;10442;49.932;11.592;2022-08-19T03:10:52;22.80;78.40
20568;DHT22;10442;49.932;11.592;2022-08-19T03:13:20;22.80;78.40
20568;DHT22;10442;49.932;11.592;2022-08-19T03:15:48;22.80;78.30
20568;DHT22;10442;49.932;11.592;2022-08-19T03:18:16;22.80;78.20
20568;DHT22;10442;49.932;11.592;2022-08-19T03:20:47;22.80;78.40
20568;DHT22;10442;49.932;11.592;2022-08-19T03:23:16;22.80;78.40
20568;DHT22;10442;49.932;11.592;2022-08-19T03:25:46;22.80;78.30
20568;DHT22;10442;49.932;11.592;2022-08-19T03:28:34;22.80;78.70
20568;DHT22;10442;49.932;11.592;2022-08-19T03:31:04;22.80;78.80
20568;DHT22;10442;49.932;11.592;2022-08-19T03:33:53;22.80;78.60
20568;DHT22;10442;49.932;11.592;2022-08-19T03:36:23;22.80;78.70
20568;DHT22;10442;49.932;11.592;2022-08-19T03:38:55;22.80;78.70
20568;DHT22;10442;49.932;11.592;2022-08-19T03:41:29;22.80;79.20
20568;DHT22;10442;49.932;11.592;2022-08-19T03:44:18;22.80;78.50
20568;DHT22;10442;49.932;11.592;2022-08-19T03:46:50;22.80;78.50
20568;DHT22;10442;49.932;11.592;2022-08-19T03:49:19;22.80;78.50
20568;DHT22;10442;49.932;11.592;2022-08-19T03:51:54;22.80;78.80
20568;DHT22;10442;49.932;11.592;2022-08-19T03:54:23;22.80;78.80
20568;DHT22;10442;49.932;11.592;2022-08-19T03:56:53;22.80;78.70
20568;DHT22;10442;49.932;11.592;2022-08-19T03:59:27;22.80;78.40
20568;DHT22;10442;49.932;11.592;2022-08-19T04:01:57;22.80;78.40
20568;DHT22;10442;49.932;11.592;2022-08-19T04:04:25;22.90;78.40
20568;DHT22;10442;49.932;11.592;2022-08-19T04:06:56;22.80;78.60
20568;DHT22;10442;49.932;11.592;2022-08-19T04:09:25;22.80;78.40
20568;DHT22;10442;49.932;11.592;2022-08-19T04:11:54;22.80;78.40
20568;DHT22;10442;49.932;11.592;2022-08-19T04:14:27;22.80;78.40
20568;DHT22;10442;49.932;11.592;2022-08-19T04:16:58;22.80;78.50
20568;DHT22;10442;49.932;11.592;2022-08-19T04:19:29;22.80;78.40
20568;DHT22;10442;49.932;11.592;2022-08-19T04:21:56;22.80;78.70
20568;DHT22;10442;49.932;11.592;2022-08-19T04:24:24;22.80;78.20
20568;DHT22;10442;49.932;11.592;2022-08-19T04:26:52;22.80;78.30
20568;DHT22;10442;49.932;11.592;2022-08-19T04:29:23;22.80;78.40
20568;DHT22;10442;49.932;11.592;2022-08-19T04:31:54;22.80;78.40
20568;DHT22;10442;49.932;11.592;2022-08-19T04:34:24;22.80;78.40
20568;DHT22;10442;49.932;11.592;2022-08-19T04:36:54;22.80;78.60
20568;DHT22;10442;49.932;11.592;2022-08-19T04:39:25;22.80;78.70
20568;DHT22;10442;49.932;11.592;2022-08-19T04:42:17;22.80;78.80
20568;DHT22;10442;49.932;11.592;2022-08-19T04:45:09;22.80;79.10
20568;DHT22;10442;49.932;11.592;2022-08-19T04:47:40;22.80;79.10
20568;DHT22;10442;49.932;11.592;2022-08-19T04:50:27;22.80;79.30
20568;DHT22;10442;49.932;11.592;2022-08-19T04:52:55;22.80;79.50
20568;DHT22;10442;49.932;11.592;2022-08-19T04:55:23;22.80;79.20
20568;DHT22;10442;49.932;11.592;2022-08-19T04:57:54;22.80;79.20
20568;DHT22;10442;49.932;11.592;2022-08-19T05:00:22;22.80;79.10
20568;DHT22;10442;49.932;11.592;2022-08-19T05:02:49;22.80;79.30
20568;DHT22;10442;49.932;11.592;2022-08-19T05:05:17;22.80;79.40
20568;DHT22;10442;49.932;11.592;2022-08-19T05:07:45;22.80;79.30
20568;DHT22;10442;49.932;11.592;2022-08-19T05:10:13;22.80;79.50
20568;DHT22;10442;49.932;11.592;2022-08-19T05:12:40;22.80;79.30
20568;DHT22;10442;49.932;11.592;2022-08-19T05:15:09;22.80;79.40
20568;DHT22;10442;49.932;11.592;2022-08-19T05:17:36;22.80;79.50
20568;DHT22;10442;49.932;11.592;2022-08-19T05:20:07;22.80;79.30
20568;DHT22;10442;49.932;11.592;2022-08-19T05:22:53;22.80;79.30
20568;DHT22;10442;49.932;11.592;2022-08-19T05:25:22;22.80;79.40
20568;DHT22;10442;49.932;11.592;2022-08-19T05:27:49;22.80;79.30
20568;DHT22;10442;49.932;11.592;2022-08-19T05:30:17;22.80;79.10
20568;DHT22;10442;49.932;11.592;2022-08-19T05:33:05;22.90;79.20
20568;DHT22;10442;49.932;11.592;2022-08-19T05:35:33;22.90;79.20
20568;DHT22;10442;49.932;11.592;2022-08-19T05:38:01;22.90;79.10
20568;DHT22;10442;49.932;11.592;2022-08-19T05:40:29;22.80;79.10
20568;DHT22;10442;49.932;11.592;2022-08-19T05:42:56;22.90;79.20
20568;DHT22;10442;49.932;11.592;2022-08-19T05:45:24;22.90;79.20
20568;DHT22;10442;49.932;11.592;2022-08-19T05:47:52;22.90;79.30
20568;DHT22;10442;49.932;11.592;2022-08-19T05:50:20;22.90;79.20
20568;DHT22;10442;49.932;11.592;2022-08-19T05:52:47;22.90;79.20
20568;DHT22;10442;49.932;11.592;2022-08-19T05:55:20;22.90;79.20
20568;DHT22;10442;49.932;11.592;2022-08-19T05:57:49;22.90;79.10
20568;DHT22;10442;49.932;11.592;2022-08-19T06:00:17;23.00;79.20
20568;DHT22;10442;49.932;11.592;2022-08-19T06:02:50;23.00;79.40
20568;DHT22;10442;49.932;11.592;2022-08-19T06:05:19;23.00;79.40
20568;DHT22;10442;49.932;11.592;2022-08-19T06:07:47;23.00;79.30
20568;DHT22;10442;49.932;11.592;2022-08-19T06:10:15;23.00;79.30
20568;DHT22;10442;49.932;11.592;2022-08-19T06:12:42;23.00;79.30
20568;DHT22;10442;49.932;11.592;2022-08-19T06:15:12;23.00;79.10
20568;DHT22;10442;49.932;11.592;2022-08-19T06:17:41;23.00;79.10
20568;DHT22;10442;49.932;11.592;2022-08-19T06:20:14;23.00;79.10
20568;DHT22;10442;49.932;11.592;2022-08-19T06:22:44;23.00;79.20
20568;DHT22;10442;49.932;11.592;2022-08-19T06:25:14;23.00;79.20
20568;DHT22;10442;49.932;11.592;2022-08-19T06:27:43;23.00;79.30
20568;DHT22;10442;49.932;11.592;2022-08-19T06:30:31;23.10;79.40
20568;DHT22;10442;49.932;11.592;2022-08-19T06:32:58;23.00;79.00
20568;DHT22;10442;49.932;11.592;2022-08-19T06:35:26;23.00;79.10
20568;DHT22;10442;49.932;11.592;2022-08-19T06:37:54;23.10;79.40
20568;DHT22;10442;49.932;11.592;2022-08-19T06:40:22;23.00;79.00
20568;DHT22;10442;49.932;11.592;2022-08-19T06:42:49;23.10;79.30
20568;DHT22;10442;49.932;11.592;2022-08-19T06:45:22;23.10;79.20
20568;DHT22;10442;49.932;11.592;2022-08-19T06:47:52;23.10;79.20
20568;DHT22;10442;49.932;11.592;2022-08-19T06:50:25;23.10;79.10
20568;DHT22;10442;49.932;11.592;2022-08-19T06:52:52;23.10;79.10
20568;DHT22;10442;49.932;11.592;2022-08-19T06:55:21;23.10;79.20
20568;DHT22;10442;49.932;11.592;2022-08-19T06:57:50;23.10;79.10
20568;DHT22;10442;49.932;11.592;2022-08-19T07:00:20;23.10;78.90
20568;DHT22;10442;49.932;11.592;2022-08-19T07:02:48;23.10;78.90
20568;DHT22;10442;49.932;11.592;2022-08-19T07:05:25;23.10;79.10
20568;DHT22;10442;49.932;11.592;2022-08-19T07:07:53;23.10;79.10
20568;DHT22;10442;49.932;11.592;2022-08-19T07:10:24;23.10;78.90
20568;DHT22;10442;49.932;11.592;2022-08-19T07:12:52;23.10;78.80
20568;DHT22;10442;49.932;11.592;2022-08-19T07:15:21;23.20;79.10
20568;DHT22;10442;49.932;11.592;2022-08-19T07:17:49;23.20;79.30
20568;DHT22;10442;49.932;11.592;2022-08-19T07:20:19;23.20;79.30
20568;DHT22;10442;49.932;11.592;2022-08-19T07:22:46;23.30;79.70
20568;DHT22;10442;49.932;11.592;2022-08-19T07:25:16;23.30;79.60
20568;DHT22;10442;49.932;11.592;2022-08-19T07:27:45;23.40;78.90
20568;DHT22;10442;49.932;11.592;2022-08-19T07:30:20;23.50;78.80
20568;DHT22;10442;49.932;11.592;2022-08-19T07:32:52;23.50;78.70
20568;DHT22;10442;49.932;11.592;2022-08-19T07:35:20;23.60;78.90
20568;DHT22;10442;49.932;11.592;2022-08-19T07:37:47;23.60;78.60
20568;DHT22;10442;49.932;11.592;2022-08-19T07:40:15;23.70;78.70
20568;DHT22;10442;49.932;11.592;2022-08-19T07:42:43;23.80;77.90
20568;DHT22;10442;49.932;11.592;2022-08-19T07:45:11;23.90;78.50
20568;DHT22;10442;49.932;11.592;2022-08-19T07:47:39;24.00;78.30
20568;DHT22;10442;49.932;11.592;2022-08-19T07:50:18;24.10;78.10
20568;DHT22;10442;49.932;11.592;2022-08-19T07:52:48;24.20;78.00
20568;DHT22;10442;49.932;11.592;2022-08-19T07:55:20;24.30;78.00
20568;DHT22;10442;49.932;11.592;2022-08-19T07:58:10;24.30;77.70
20568;DHT22;10442;49.932;11.592;2022-08-19T08:00:39;24.40;77.30
20568;DHT22;10442;49.932;11.592;2022-08-19T08:03:07;24.40;76.90
20568;DHT22;10442;49.932;11.592;2022-08-19T08:05:35;24.50;77.00
20568;DHT22;10442;49.932;11.592;2022-08-19T08:08:22;24.50;77.00
20568;DHT22;10442;49.932;11.592;2022-08-19T08:11:12;24.60;77.10
20568;DHT22;10442;49.932;11.592;2022-08-19T08:13:42;24.60;76.10
20568;DHT22;10442;49.932;11.592;2022-08-19T08:16:09;24.60;76.20
20568;DHT22;10442;49.932;11.592;2022-08-19T08:18:40;24.70;76.40
20568;DHT22;10442;49.932;11.592;2022-08-19T08:21:16;24.70;76.50
20568;DHT22;10442;49.932;11.592;2022-08-19T08:23:44;24.80;76.60
20568;DHT22;10442;49.932;11.592;2022-08-19T08:26:12;24.90;76.80
20568;DHT22;10442;49.932;11.592;2022-08-19T08:28:42;25.00;76.60
20568;DHT22;10442;49.932;11.592;2022-08-19T08:31:15;25.00;75.20
20568;DHT22;10442;49.932;11.592;2022-08-19T08:33:43;25.10;75.10
20568;DHT22;10442;49.932;11.592;2022-08-19T08:36:12;25.10;75.50
20568;DHT22;10442;49.932;11.592;2022-08-19T08:38:43;25.10;75.60
20568;DHT22;10442;49.932;11.592;2022-08-19T08:43:59;25.20;75.00
20568;DHT22;10442;49.932;11.592;2022-08-19T08:46:34;25.20;74.70
20568;DHT22;10442;49.932;11.592;2022-08-19T08:51:59;25.20;73.80
20568;DHT22;10442;49.932;11.592;2022-08-19T08:54:34;25.20;73.80
20568;DHT22;10442;49.932;11.592;2022-08-19T08:57:06;25.20;73.60
20568;DHT22;10442;49.932;11.592;2022-08-19T08:59:38;25.20;73.50
20568;DHT22;10442;49.932;11.592;2022-08-19T09:02:07;25.20;73.50
20568;DHT22;10442;49.932;11.592;2022-08-19T09:04:36;25.20;73.90
20568;DHT22;10442;49.932;11.592;2022-08-19T09:07:40;25.20;74.30
20568;DHT22;10442;49.932;11.592;2022-08-19T09:10:25;25.20;73.80
20568;DHT22;10442;49.932;11.592;2022-08-19T09:16:07;25.20;73.20
20568;DHT22;10442;49.932;11.592;2022-08-19T09:21:07;25.20;72.60
20568;DHT22;10442;49.932;11.592;2022-08-19T09:23:37;25.20;73.00
20568;DHT22;10442;49.932;11.592;2022-08-19T09:26:09;25.20;73.40
20568;DHT22;10442;49.932;11.592;2022-08-19T09:28:44;25.20;73.20
20568;DHT22;10442;49.932;11.592;2022-08-19T09:31:18;25.20;73.20
20568;DHT22;10442;49.932;11.592;2022-08-19T09:33:47;25.20;72.70
20568;DHT22;10442;49.932;11.592;2022-08-19T09:36:20;25.10;72.70
20568;DHT22;10442;49.932;11.592;2022-08-19T09:39:03;25.10;72.40
20568;DHT22;10442;49.932;11.592;2022-08-19T09:41:42;25.10;72.60
20568;DHT22;10442;49.932;11.592;2022-08-19T09:44:15;25.10;72.90
20568;DHT22;10442;49.932;11.592;2022-08-19T09:46:45;25.20;72.80
20568;DHT22;10442;49.932;11.592;2022-08-19T09:49:16;25.20;72.90
20568;DHT22;10442;49.932;11.592;2022-08-19T09:51:46;25.20;72.50
20568;DHT22;10442;49.932;11.592;2022-08-19T09:54:18;25.20;72.20
20568;DHT22;10442;49.932;11.592;2022-08-19T09:56:52;25.20;72.20
20568;DHT22;10442;49.932;11.592;2022-08-19T09:59:21;25.10;72.30
20568;DHT22;10442;49.932;11.592;2022-08-19T10:01:48;25.20;72.60
20568;DHT22;10442;49.932;11.592;2022-08-19T10:04:16;25.10;72.60
20568;DHT22;10442;49.932;11.592;2022-08-19T10:06:49;25.10;72.70
20568;DHT22;10442;49.932;11.592;2022-08-19T10:09:20;25.20;73.00
20568;DHT22;10442;49.932;11.592;2022-08-19T10:12:03;25.20;73.10
20568;DHT22;10442;49.932;11.592;2022-08-19T10:14:32;25.30;73.10
20568;DHT22;10442;49.932;11.592;2022-08-19T10:17:01;25.40;73.10
20568;DHT22;10442;49.932;11.592;2022-08-19T10:19:46;25.50;72.50
20568;DHT22;10442;49.932;11.592;2022-08-19T10:22:22;25.70;72.40
20568;DHT22;10442;49.932;11.592;2022-08-19T10:24:52;25.80;71.80
20568;DHT22;10442;49.932;11.592;2022-08-19T10:27:19;25.90;71.70
20568;DHT22;10442;49.932;11.592;2022-08-19T10:29:47;25.90;71.40
20568;DHT22;10442;49.932;11.592;2022-08-19T10:32:15;26.00;70.40
20568;DHT22;10442;49.932;11.592;2022-08-19T10:34:43;26.00;70.20
20568;DHT22;10442;49.932;11.592;2022-08-19T10:37:17;26.00;70.40
20568;DHT22;10442;49.932;11.592;2022-08-19T10:39:51;26.00;70.70
20568;DHT22;10442;49.932;11.592;2022-08-19T10:42:19;25.90;70.50
20568;DHT22;10442;49.932;11.592;2022-08-19T10:44:48;25.90;70.50
20568;DHT22;10442;49.932;11.592;2022-08-19T10:47:18;25.80;70.50
20568;DHT22;10442;49.932;11.592;2022-08-19T10:49:54;25.80;70.60
20568;DHT22;10442;49.932;11.592;2022-08-19T10:52:42;25.80;70.20
20568;DHT22;10442;49.932;11.592;2022-08-19T10:55:22;25.70;70.60
20568;DHT22;10442;49.932;11.592;2022-08-19T10:58:27;25.70;70.30
20568;DHT22;10442;49.932;11.592;2022-08-19T11:00:57;25.60;70.60
20568;DHT22;10442;49.932;11.592;2022-08-19T11:03:25;25.60;70.80
20568;DHT22;10442;49.932;11.592;2022-08-19T11:06:07;25.60;71.80
20568;DHT22;10442;49.932;11.592;2022-08-19T11:08:36;25.60;71.60
20568;DHT22;10442;49.932;11.592;2022-08-19T11:11:06;25.60;71.90
20568;DHT22;10442;49.932;11.592;2022-08-19T11:13:38;25.70;71.80
20568;DHT22;10442;49.932;11.592;2022-08-19T11:16:09;25.70;71.40
20568;DHT22;10442;49.932;11.592;2022-08-19T11:18:39;25.80;71.50
20568;DHT22;10442;49.932;11.592;2022-08-19T11:21:23;25.90;70.90
20568;DHT22;10442;49.932;11.592;2022-08-19T11:23:54;25.90;70.50
20568;DHT22;10442;49.932;11.592;2022-08-19T11:26:22;25.90;70.20
20568;DHT22;10442;49.932;11.592;2022-08-19T11:28:50;25.90;69.90
20568;DHT22;10442;49.932;11.592;2022-08-19T11:31:27;25.90;69.40
20568;DHT22;10442;49.932;11.592;2022-08-19T11:33:57;25.80;69.50
20568;DHT22;10442;49.932;11.592;2022-08-19T11:36:25;25.80;69.60
20568;DHT22;10442;49.932;11.592;2022-08-19T11:38:53;25.70;69.40
20568;DHT22;10442;49.932;11.592;2022-08-19T11:41:22;25.70;69.60
20568;DHT22;10442;49.932;11.592;2022-08-19T11:43:51;25.60;70.10
20568;DHT22;10442;49.932;11.592;2022-08-19T11:46:23;25.60;70.60
20568;DHT22;10442;49.932;11.592;2022-08-19T11:48:51;25.40;70.70
20568;DHT22;10442;49.932;11.592;2022-08-19T11:51:21;25.40;70.40
20568;DHT22;10442;49.932;11.592;2022-08-19T11:53:49;25.30;70.70
20568;DHT22;10442;49.932;11.592;2022-08-19T11:56:19;25.20;70.80
20568;DHT22;10442;49.932;11.592;2022-08-19T11:58:47;25.10;71.00
20568;DHT22;10442;49.932;11.592;2022-08-19T12:01:17;25.10;71.10
20568;DHT22;10442;49.932;11.592;2022-08-19T12:03:47;25.00;71.20
20568;DHT22;10442;49.932;11.592;2022-08-19T12:06:27;24.90;71.30
20568;DHT22;10442;49.932;11.592;2022-08-19T12:08:56;24.80;71.30
20568;DHT22;10442;49.932;11.592;2022-08-19T12:11:24;24.80;71.80
20568;DHT22;10442;49.932;11.592;2022-08-19T12:13:52;24.70;72.50
20568;DHT22;10442;49.932;11.592;2022-08-19T12:16:24;24.70;71.60
20568;DHT22;10442;49.932;11.592;2022-08-19T12:18:53;24.60;71.70
20568;DHT22;10442;49.932;11.592;2022-08-19T12:21:26;24.60;71.70
20568;DHT22;10442;49.932;11.592;2022-08-19T12:23:57;24.50;71.80
20568;DHT22;10442;49.932;11.592;2022-08-19T12:26:27;24.40;71.70
20568;DHT22;10442;49.932;11.592;2022-08-19T12:28:55;24.40;72.20
20568;DHT22;10442;49.932;11.592;2022-08-19T12:31:22;24.40;72.30
20568;DHT22;10442;49.932;11.592;2022-08-19T12:33:50;24.30;72.10
20568;DHT22;10442;49.932;11.592;2022-08-19T12:36:19;24.20;72.20
20568;DHT22;10442;49.932;11.592;2022-08-19T12:38:47;24.20;72.30
20568;DHT22;10442;49.932;11.592;2022-08-19T12:41:16;24.10;72.70
20568;DHT22;10442;49.932;11.592;2022-08-19T12:43:45;24.10;72.40
20568;DHT22;10442;49.932;11.592;2022-08-19T12:46:13;24.10;71.80
20568;DHT22;10442;49.932;11.592;2022-08-19T12:48:43;24.10;72.00
20568;DHT22;10442;49.932;11.592;2022-08-19T12:51:15;24.10;72.20
20568;DHT22;10442;49.932;11.592;2022-08-19T12:53:44;24.10;72.10
20568;DHT22;10442;49.932;11.592;2022-08-19T12:56:12;24.10;71.80
20568;DHT22;10442;49.932;11.592;2022-08-19T12:58:42;24.20;71.60
20568;DHT22;10442;49.932;11.592;2022-08-19T13:01:18;24.10;70.90
20568;DHT22;10442;49.932;11.592;2022-08-19T13:03:50;24.20;71.30
20568;DHT22;10442;49.932;11.592;2022-08-19T13:06:19;24.30;71.40
20568;DHT22;10442;49.932;11.592;2022-08-19T13:08:47;24.40;71.10
20568;DHT22;10442;49.932;11.592;2022-08-19T13:11:17;24.40;71.00
20568;DHT22;10442;49.932;11.592;2022-08-19T13:13:48;24.40;70.90
20568;DHT22;10442;49.932;11.592;2022-08-19T13:16:18;24.50;70.20
20568;DHT22;10442;49.932;11.592;2022-08-19T13:18:48;24.40;69.90
20568;DHT22;10442;49.932;11.592;2022-08-19T13:21:16;24.50;70.30
20568;DHT22;10442;49.932;11.592;2022-08-19T13:23:47;24.50;70.50
20568;DHT22;10442;49.932;11.592;2022-08-19T13:26:16;24.60;70.20
20568;DHT22;10442;49.932;11.592;2022-08-19T13:28:44;24.60;70.50
20568;DHT22;10442;49.932;11.592;2022-08-19T13:31:33;24.70;69.50
20568;DHT22;10442;49.932;11.592;2022-08-19T13:34:33;24.80;68.90
20568;DHT22;10442;49.932;11.592;2022-08-19T13:37:03;25.00;68.90
20568;DHT22;10442;49.932;11.592;2022-08-19T13:39:32;25.10;69.10
20568;DHT22;10442;49.932;11.592;2022-08-19T13:42:01;25.20;69.10
20568;DHT22;10442;49.932;11.592;2022-08-19T13:44:29;25.20;68.60
20568;DHT22;10442;49.932;11.592;2022-08-19T13:47:02;25.30;68.40
20568;DHT22;10442;49.932;11.592;2022-08-19T13:49:34;25.40;68.30
20568;DHT22;10442;49.932;11.592;2022-08-19T13:52:04;25.50;68.40
20568;DHT22;10442;49.932;11.592;2022-08-19T13:54:32;25.50;67.80
20568;DHT22;10442;49.932;11.592;2022-08-19T13:57:00;25.50;67.00
20568;DHT22;10442;49.932;11.592;2022-08-19T13:59:27;25.50;66.50
20568;DHT22;10442;49.932;11.592;2022-08-19T14:01:58;25.50;66.50
20568;DHT22;10442;49.932;11.592;2022-08-19T14:04:26;25.50;66.00
20568;DHT22;10442;49.932;11.592;2022-08-19T14:06:54;25.40;66.10
20568;DHT22;10442;49.932;11.592;2022-08-19T14:09:22;25.40;66.40
20568;DHT22;10442;49.932;11.592;2022-08-19T14:11:49;25.40;66.40
20568;DHT22;10442;49.932;11.592;2022-08-19T14:14:18;25.40;66.50
20568;DHT22;10442;49.932;11.592;2022-08-19T14:16:45;25.40;66.50
20568;DHT22;10442;49.932;11.592;2022-08-19T14:19:13;25.40;66.20
20568;DHT22;10442;49.932;11.592;2022-08-19T14:21:41;25.40;65.80
20568;DHT22;10442;49.932;11.592;2022-08-19T14:24:09;25.40;65.30
20568;DHT22;10442;49.932;11.592;2022-08-19T14:26:36;25.30;65.40
20568;DHT22;10442;49.932;11.592;2022-08-19T14:29:04;25.30;65.80
20568;DHT22;10442;49.932;11.592;2022-08-19T14:31:32;25.30;65.80
20568;DHT22;10442;49.932;11.592;2022-08-19T14:33:59;25.20;64.90
20568;DHT22;10442;49.932;11.592;2022-08-19T14:36:27;25.20;65.20
20568;DHT22;10442;49.932;11.592;2022-08-19T14:38:54;25.10;65.50
20568;DHT22;10442;49.932;11.592;2022-08-19T14:41:22;25.10;65.60
20568;DHT22;10442;49.932;11.592;2022-08-19T14:43:52;25.10;65.60
20568;DHT22;10442;49.932;11.592;2022-08-19T14:46:21;25.10;65.70
20568;DHT22;10442;49.932;11.592;2022-08-19T14:48:49;25.00;66.00
20568;DHT22;10442;49.932;11.592;2022-08-19T14:51:21;25.00;66.20
20568;DHT22;10442;49.932;11.592;2022-08-19T14:53:50;24.90;66.20
20568;DHT22;10442;49.932;11.592;2022-08-19T14:56:23;24.90;66.00
20568;DHT22;10442;49.932;11.592;2022-08-19T14:58:51;24.90;66.90
20568;DHT22;10442;49.932;11.592;2022-08-19T15:01:21;24.80;67.10
20568;DHT22;10442;49.932;11.592;2022-08-19T15:03:50;24.80;67.50
20568;DHT22;10442;49.932;11.592;2022-08-19T15:06:21;24.80;67.90
20568;DHT22;10442;49.932;11.592;2022-08-19T15:08:50;24.70;68.40
20568;DHT22;10442;49.932;11.592;2022-08-19T15:11:20;24.60;68.30
20568;DHT22;10442;49.932;11.592;2022-08-19T15:13:49;24.60;68.30
20568;DHT22;10442;49.932;11.592;2022-08-19T15:16:19;24.50;68.60
20568;DHT22;10442;49.932;11.592;2022-08-19T15:18:52;24.50;68.60
20568;DHT22;10442;49.932;11.592;2022-08-19T15:21:22;24.40;68.40
20568;DHT22;10442;49.932;11.592;2022-08-19T15:23:55;24.40;68.10
20568;DHT22;10442;49.932;11.592;2022-08-19T15:26:23;24.40;68.60
20568;DHT22;10442;49.932;11.592;2022-08-19T15:28:54;24.40;68.60
20568;DHT22;10442;49.932;11.592;2022-08-19T15:31:22;24.30;69.20
20568;DHT22;10442;49.932;11.592;2022-08-19T15:33:56;24.30;69.10
20568;DHT22;10442;49.932;11.592;2022-08-19T15:36:27;24.30;69.40
20568;DHT22;10442;49.932;11.592;2022-08-19T15:38:57;24.30;69.30
20568;DHT22;10442;49.932;11.592;2022-08-19T15:41:27;24.20;69.30
20568;DHT22;10442;49.932;11.592;2022-08-19T15:44:02;24.30;69.40
20568;DHT22;10442;49.932;11.592;2022-08-19T15:46:32;24.20;69.20
20568;DHT22;10442;49.932;11.592;2022-08-19T15:49:00;24.20;69.90
20568;DHT22;10442;49.932;11.592;2022-08-19T15:51:30;24.20;69.50